Main page
METAR-TAF:

METAR-TAF

Airports :

East Midlands Airport

East Midlands, England

latitude: 52-50N, longitude: 001-20W, elevation: 94 m

Current weather observation

The report was made 17 minutes ago, at 18:50 UTC
Wind 9 kt from the South
Temperature 9°C
Humidity 87%
Pressure 1022 hPa
Visibility 10 km or more
Scattered clouds at a height of 4300 ft

METAR: EGNX 131850Z 18009KT 9999 SCT043 09/07 Q1022

Time: 19:07 (19:07 UTC)

Forecast

The report was made 1 hour and 9 minutes ago, at 17:58 UTC
Forecast valid from 13 at 18 UTC to 14 at 18 UTC
Wind 9 kt from the South/Southwest
Visibility 10 km or more
Few clouds at a height of 3000 ft
Probability 30% :
Temporary
from 14 at 00 UTC to 14 at 14 UTC
Wind 15 kt from the South with gusts up to 25 kt

TAF: EGNX 131758Z 1318/1418 20009KT 9999 FEW030 PROB30 TEMPO 1400/1414 19015G25KT

Weather observations and forecasts of more than 4000 airports (METAR and TAF reports).

The available stations are represented by yellow and red dots on the map.

Hover mouse over dot to see the name of the station.

Then click to see weather observations and forecasts.

To change the map : click on the green buttons with a black cross to zoom in, on the green button with a dash to zoom out, or on the green arrows for adjacent maps.


METAR-TAF: